Time;durP1;ratioP1;P1;durP2;ratioP2;P2;SDS_P1;SDS_P2;PMS_P1;PMS_P2;Temp;Humidity;BMP_temperature;BMP_pressure;BME280_temperature;BME280_humidity;BME280_pressure;Samples;Min_cycle;Max_cycle;Signal;HPM_P1;HPM_P2
2022/07/03 00:01:41;;;;;;;2.78;0.80;;;22.70;74.20;;;;;;4992050;28;20030;-70
2022/07/03 00:04:07;;;;;;;3.67;1.00;;;22.70;74.80;;;;;;4993381;28;20023;-70
2022/07/03 00:06:33;;;;;;;3.97;1.10;;;22.60;74.20;;;;;;4993574;28;20030;-70
2022/07/03 00:08:59;;;;;;;3.38;0.90;;;22.60;74.30;;;;;;4993134;28;20085;-69
2022/07/03 00:11:26;;;;;;;4.53;1.20;;;22.50;74.30;;;;;;4993017;28;20030;-69
2022/07/03 00:13:51;;;;;;;1.55;0.65;;;22.50;74.30;;;;;;4992939;28;20475;-69
2022/07/03 00:16:17;;;;;;;3.80;0.80;;;22.50;74.20;;;;;;4993161;28;20026;-69
2022/07/03 00:18:43;;;;;;;2.03;0.77;;;22.50;74.20;;;;;;4993421;28;20026;-69
2022/07/03 00:21:10;;;;;;;3.42;1.35;;;22.50;74.20;;;;;;4993268;28;20046;-69
2022/07/03 00:24:07;;;;;;;2.92;1.17;;;22.40;74.00;;;;;;4993259;28;20472;-69
2022/07/03 00:26:36;;;;;;;2.78;1.15;;;22.40;74.10;;;;;;4993101;28;20031;-68
2022/07/03 00:29:03;;;;;;;3.22;1.00;;;22.40;74.00;;;;;;4993271;28;20037;-70
2022/07/03 00:31:32;;;;;;;2.53;1.08;;;22.40;73.90;;;;;;4993244;28;20026;-70
2022/07/03 00:33:59;;;;;;;4.30;1.00;;;22.30;73.70;;;;;;4993167;28;20058;-69
2022/07/03 00:36:28;;;;;;;3.53;1.42;;;22.30;73.60;;;;;;4993094;28;20530;-69
2022/07/03 00:38:54;;;;;;;3.08;0.85;;;22.30;73.50;;;;;;4994460;28;20030;-69
2022/07/03 00:41:28;;;;;;;1.85;0.82;;;22.30;73.20;;;;;;4996730;28;20030;-69
2022/07/03 00:43:55;;;;;;;1.83;0.80;;;22.20;73.00;;;;;;4996471;28;20038;-70
2022/07/03 00:46:25;;;;;;;3.10;0.85;;;22.20;72.70;;;;;;4996491;28;20026;-69
2022/07/03 00:48:52;;;;;;;2.65;0.93;;;22.20;72.70;;;;;;4996514;28;20160;-70
2022/07/03 00:51:25;;;;;;;1.85;0.65;;;22.20;72.20;;;;;;4996425;28;20130;-70
2022/07/03 00:53:54;;;;;;;2.65;0.70;;;22.20;72.00;;;;;;4995919;28;20030;-69
2022/07/03 00:56:24;;;;;;;4.05;0.98;;;22.20;72.20;;;;;;4996244;28;20112;-69
2022/07/03 00:58:54;;;;;;;2.85;0.90;;;22.10;71.40;;;;;;4996509;28;20022;-70
2022/07/03 01:01:21;;;;;;;8.48;1.10;;;22.20;71.30;;;;;;4996155;28;20018;-70
2022/07/03 01:03:53;;;;;;;4.25;1.00;;;22.20;70.80;;;;;;4996207;28;20030;-69
2022/07/03 01:06:20;;;;;;;2.35;0.73;;;22.10;70.60;;;;;;4995894;28;20022;-69
2022/07/03 01:08:50;;;;;;;2.15;0.70;;;22.10;70.50;;;;;;4995810;28;20046;-69
2022/07/03 01:11:27;;;;;;;2.45;0.77;;;22.10;70.30;;;;;;4995814;28;20018;-70
2022/07/03 01:13:58;;;;;;;2.47;0.80;;;22.10;70.30;;;;;;4996085;28;20030;-69
2022/07/03 01:16:51;;;;;;;2.28;0.93;;;22.10;70.20;;;;;;4995733;28;20061;-69
2022/07/03 01:19:35;;;;;;;2.05;0.82;;;22.10;70.20;;;;;;4996002;28;20030;-70
2022/07/03 01:22:26;;;;;;;1.52;0.60;;;22.00;70.20;;;;;;4995610;28;20122;-70
2022/07/03 01:25:12;;;;;;;6.28;1.17;;;22.00;70.20;;;;;;4995706;28;20035;-69
2022/07/03 01:28:05;;;;;;;2.90;0.90;;;22.00;70.20;;;;;;4995803;28;20487;-69
2022/07/03 01:30:33;;;;;;;2.88;1.08;;;22.00;70.30;;;;;;4995649;28;20039;-69
2022/07/03 01:33:09;;;;;;;2.40;0.82;;;21.90;70.30;;;;;;4995710;28;20023;-70
2022/07/03 01:35:40;;;;;;;3.92;1.27;;;21.90;70.20;;;;;;4977954;28;20060;-69
2022/07/03 01:38:12;;;;;;;1.67;0.82;;;21.90;70.10;;;;;;4995378;28;20015;-69
2022/07/03 01:40:40;;;;;;;3.22;0.88;;;21.80;70.60;;;;;;4995484;28;20034;-69
2022/07/03 01:43:11;;;;;;;3.63;1.27;;;21.90;69.90;;;;;;4977829;28;20034;-69
2022/07/03 01:45:43;;;;;;;3.35;1.05;;;21.90;70.10;;;;;;4995368;28;20463;-69
2022/07/03 01:48:09;;;;;;;;;;;21.90;70.40;;;;;;4995633;28;20384;-69
2022/07/03 01:50:37;;;;;;;2.30;1.02;;;21.90;70.50;;;;;;4994268;28;19952;-70
2022/07/03 01:53:05;;;;;;;3.10;1.05;;;21.80;70.60;;;;;;4994953;28;20034;-70
2022/07/03 01:55:32;;;;;;;3.20;1.20;;;21.80;70.70;;;;;;4995056;28;20029;-69
2022/07/03 01:57:58;;;;;;;3.03;0.85;;;21.80;71.60;;;;;;4995228;28;20045;-70
2022/07/03 02:00:25;;;;;;;4.03;1.30;;;21.70;71.10;;;;;;4994958;28;20030;-69
2022/07/03 02:02:56;;;;;;;2.90;1.20;;;21.80;71.40;;;;;;4995098;28;20391;-69
2022/07/03 02:05:39;;;;;;;2.58;1.10;;;21.70;71.30;;;;;;4994878;28;20030;-70
2022/07/03 02:08:23;;;;;;;;;;;21.70;71.60;;;;;;4995184;28;20486;-69
2022/07/03 02:11:11;;;;;;;3.92;1.05;;;21.70;71.40;;;;;;4995184;28;20355;-69
2022/07/03 02:13:42;;;;;;;2.67;0.90;;;21.70;71.40;;;;;;4994941;28;20035;-69
2022/07/03 02:16:12;;;;;;;5.55;1.15;;;21.60;71.20;;;;;;4994805;28;20041;-69
2022/07/03 02:18:38;;;;;;;4.32;0.85;;;21.60;71.30;;;;;;4994689;28;20389;-69
2022/07/03 02:21:12;;;;;;;2.90;1.17;;;21.60;71.40;;;;;;4994626;28;20495;-69
2022/07/03 02:24:09;;;;;;;3.50;0.93;;;21.60;71.40;;;;;;4977150;28;20026;-69
2022/07/03 02:26:41;;;;;;;2.50;1.08;;;21.50;71.20;;;;;;4994681;28;20037;-70
2022/07/03 02:29:12;;;;;;;2.78;0.80;;;21.50;71.10;;;;;;4994458;28;20089;-69
2022/07/03 02:31:42;;;;;;;1.45;0.55;;;21.40;70.90;;;;;;4994449;28;20161;-70
2022/07/03 02:34:15;;;;;;;1.88;0.80;;;21.40;71.00;;;;;;4994443;28;20022;-69
2022/07/03 02:36:46;;;;;;;3.13;0.93;;;21.50;71.00;;;;;;4994090;28;20077;-69
2022/07/03 02:39:22;;;;;;;1.75;0.65;;;21.40;70.70;;;;;;4994393;28;20042;-69
2022/07/03 02:41:57;;;;;;;2.67;0.80;;;21.40;70.50;;;;;;4994283;28;20212;-70
2022/07/03 02:44:22;;;;;;;2.00;0.80;;;21.40;70.40;;;;;;4994386;28;20133;-69
2022/07/03 02:47:06;;;;;;;3.58;0.47;;;21.40;70.30;;;;;;4994150;28;20171;-69
2022/07/03 02:49:48;;;;;;;2.85;0.60;;;21.30;70.10;;;;;;4993854;28;20042;-69
2022/07/03 02:52:34;;;;;;;1.48;0.50;;;21.30;70.10;;;;;;4994152;28;20030;-68
2022/07/03 02:55:21;;;;;;;1.73;0.50;;;21.30;70.10;;;;;;4994431;28;20022;-69
2022/07/03 02:57:55;;;;;;;3.50;0.70;;;21.30;70.40;;;;;;4993912;28;20030;-70
2022/07/03 03:00:23;;;;;;;2.10;0.60;;;21.30;70.20;;;;;;4994843;28;20037;-69
2022/07/03 03:02:56;;;;;;;1.85;0.63;;;21.30;70.30;;;;;;5010410;28;20033;-70
2022/07/03 03:05:32;;;;;;;1.92;0.70;;;21.20;70.30;;;;;;5012988;28;20030;-70
2022/07/03 03:08:21;;;;;;;3.28;0.50;;;21.20;70.40;;;;;;5011167;28;20073;-69
2022/07/03 03:10:49;;;;;;;1.48;0.60;;;21.20;70.40;;;;;;5012998;28;20045;-69
2022/07/03 03:13:19;;;;;;;4.00;0.95;;;21.20;70.40;;;;;;5013532;28;20030;-69
2022/07/03 03:16:03;;;;;;;2.25;0.40;;;21.20;70.40;;;;;;5013251;28;20046;-70
2022/07/03 03:18:30;;;;;;;2.20;0.65;;;21.20;70.50;;;;;;5013103;28;20026;-69
2022/07/03 03:20:59;;;;;;;3.03;0.70;;;21.10;70.40;;;;;;5013398;28;20021;-69
2022/07/03 03:23:37;;;;;;;1.58;0.47;;;21.20;70.70;;;;;;5013292;28;20028;-69
2022/07/03 03:26:03;;;;;;;3.13;0.57;;;21.10;70.70;;;;;;5013142;28;20037;-67
2022/07/03 03:28:30;;;;;;;4.50;0.98;;;21.10;70.90;;;;;;5013193;28;20042;-70
2022/07/03 03:30:56;;;;;;;1.85;0.57;;;21.10;71.10;;;;;;5013355;28;20018;-69
2022/07/03 03:33:22;;;;;;;2.55;0.77;;;21.10;71.10;;;;;;5012840;28;20376;-69
2022/07/03 03:35:48;;;;;;;2.42;0.93;;;21.00;71.20;;;;;;5013283;28;20018;-69
2022/07/03 03:38:14;;;;;;;2.85;0.77;;;21.10;71.50;;;;;;5013137;28;20019;-69
2022/07/03 03:40:40;;;;;;;3.33;0.73;;;21.10;71.60;;;;;;5005150;28;20030;-68
2022/07/03 03:43:06;;;;;;;1.65;0.55;;;21.00;71.70;;;;;;5012622;28;20085;-69
2022/07/03 03:45:31;;;;;;;3.30;1.00;;;21.00;71.80;;;;;;5012962;28;20391;-69
2022/07/03 03:47:57;;;;;;;2.95;0.80;;;21.00;72.00;;;;;;5012931;28;20026;-70
2022/07/03 03:50:24;;;;;;;3.30;0.80;;;21.00;72.20;;;;;;5013049;28;20499;-69
2022/07/03 03:52:50;;;;;;;2.55;0.90;;;21.00;72.40;;;;;;5013002;28;20053;-70
2022/07/03 03:55:15;;;;;;;4.00;1.20;;;21.00;72.60;;;;;;5012908;28;20470;-70
2022/07/03 03:57:41;;;;;;;1.90;0.93;;;21.00;72.80;;;;;;5013078;28;20026;-70
2022/07/03 04:00:08;;;;;;;3.80;1.17;;;20.90;73.60;;;;;;5013015;28;20101;-68
2022/07/03 04:02:33;;;;;;;1.63;0.93;;;20.90;73.10;;;;;;5012723;28;20052;-68
2022/07/03 04:04:59;;;;;;;2.95;0.90;;;20.90;73.20;;;;;;5012964;28;20468;-68
2022/07/03 04:07:25;;;;;;;3.35;1.05;;;20.90;73.40;;;;;;5013032;28;20089;-69
2022/07/03 04:09:50;;;;;;;3.83;0.90;;;20.90;73.50;;;;;;5012647;28;20037;-70
2022/07/03 04:12:16;;;;;;;2.00;0.88;;;20.90;73.70;;;;;;5013024;28;20026;-70
2022/07/03 04:14:42;;;;;;;3.67;1.00;;;20.90;73.80;;;;;;4998327;28;20037;-70
2022/07/03 04:17:07;;;;;;;3.35;0.90;;;20.90;73.70;;;;;;5016318;28;20065;-70
2022/07/03 04:19:33;;;;;;;2.15;0.88;;;20.90;73.80;;;;;;5016445;28;20026;-69
2022/07/03 04:21:59;;;;;;;2.17;0.82;;;20.80;73.80;;;;;;5016667;28;20030;-70
2022/07/03 04:24:24;;;;;;;1.85;0.98;;;20.80;73.90;;;;;;5016279;28;20460;-69
2022/07/03 04:26:50;;;;;;;2.67;1.13;;;20.80;74.20;;;;;;5016442;28;20535;-70
2022/07/03 04:29:15;;;;;;;3.95;1.25;;;20.80;74.30;;;;;;5016165;28;20121;-70
2022/07/03 04:31:41;;;;;;;3.38;1.27;;;20.80;74.40;;;;;;5016178;28;20458;-69
2022/07/03 04:34:07;;;;;;;2.97;1.30;;;20.70;74.60;;;;;;5016340;28;20108;-70
2022/07/03 04:36:33;;;;;;;3.22;1.63;;;20.80;74.90;;;;;;4998590;28;20077;-69
2022/07/03 04:38:58;;;;;;;3.05;1.20;;;20.80;75.10;;;;;;5016079;28;20026;-70
2022/07/03 04:41:24;;;;;;;5.60;1.17;;;20.80;75.20;;;;;;5016004;28;20491;-69
2022/07/03 04:43:49;;;;;;;1.95;0.98;;;20.80;75.30;;;;;;5015942;28;20492;-70
2022/07/03 04:46:15;;;;;;;4.72;1.70;;;20.80;75.30;;;;;;5016200;28;20463;-70
2022/07/03 04:48:40;;;;;;;3.40;1.35;;;20.80;75.70;;;;;;5015999;28;20109;-70
2022/07/03 04:51:06;;;;;;;1.75;1.52;;;20.80;75.80;;;;;;5015954;28;20030;-70
2022/07/03 04:53:32;;;;;;;3.38;1.20;;;20.80;76.00;;;;;;5016038;28;20030;-69
2022/07/03 04:55:57;;;;;;;4.15;0.80;;;20.80;76.00;;;;;;4998219;28;20033;-70
2022/07/03 04:58:23;;;;;;;3.63;1.85;;;20.90;76.60;;;;;;5016022;28;20041;-69
2022/07/03 05:00:48;;;;;;;2.90;1.90;;;20.90;76.40;;;;;;5011024;28;20027;-69
2022/07/03 05:03:14;;;;;;;2.70;1.33;;;20.90;76.80;;;;;;4996962;28;20038;-69
2022/07/03 05:05:40;;;;;;;3.13;1.75;;;20.90;76.90;;;;;;4995446;28;20030;-69
2022/07/03 05:08:06;;;;;;;2.95;0.70;;;20.90;77.20;;;;;;4993659;28;20041;-69
2022/07/03 05:10:31;;;;;;;3.08;2.25;;;21.00;77.30;;;;;;4995983;28;20027;-69
2022/07/03 05:12:57;;;;;;;4.22;2.58;;;21.00;77.40;;;;;;4995982;28;20041;-69
2022/07/03 05:15:23;;;;;;;2.17;1.70;;;21.00;77.90;;;;;;4995271;28;20105;-69
2022/07/03 05:17:49;;;;;;;1.77;1.00;;;21.00;77.90;;;;;;4995974;28;20023;-69
2022/07/03 05:20:30;;;;;;;2.67;1.98;;;21.00;77.70;;;;;;4995865;28;20368;-69
2022/07/03 05:23:00;;;;;;;4.28;2.13;;;21.00;77.70;;;;;;4995664;28;20425;-69
2022/07/03 05:25:27;;;;;;;3.22;1.77;;;21.00;77.80;;;;;;4995242;28;20018;-70
2022/07/03 05:27:54;;;;;;;2.65;1.27;;;21.00;77.80;;;;;;4995768;28;20026;-69
2022/07/03 05:30:24;;;;;;;4.35;1.90;;;21.00;77.80;;;;;;4995369;28;20484;-69
2022/07/03 05:32:50;;;;;;;4.18;2.40;;;21.00;78.00;;;;;;4995616;28;20026;-69
2022/07/03 05:35:16;;;;;;;3.80;2.20;;;21.00;78.50;;;;;;4995631;28;20038;-69
2022/07/03 05:37:41;;;;;;;5.63;2.92;;;21.00;78.50;;;;;;4995519;28;20475;-70
2022/07/03 05:40:08;;;;;;;4.15;2.47;;;21.00;78.80;;;;;;4995582;28;20449;-69
2022/07/03 05:42:34;;;;;;;3.58;1.67;;;21.00;79.20;;;;;;4995389;28;20038;-69
2022/07/03 05:45:00;;;;;;;3.83;1.80;;;21.00;78.80;;;;;;4995055;28;20033;-68
2022/07/03 05:47:26;;;;;;;3.22;1.80;;;21.00;78.60;;;;;;5000643;28;20022;-69
2022/07/03 05:49:51;;;;;;;3.53;2.50;;;21.10;78.60;;;;;;5014314;28;20048;-69
2022/07/03 05:52:17;;;;;;;4.55;2.85;;;21.10;79.10;;;;;;5003388;28;20030;-68
2022/07/03 05:54:43;;;;;;;5.10;2.97;;;21.20;80.00;;;;;;5005788;28;20032;-68
2022/07/03 05:57:09;;;;;;;5.78;2.88;;;21.20;80.60;;;;;;5011253;28;20088;-68
2022/07/03 05:59:35;;;;;;;4.70;2.20;;;21.30;81.00;;;;;;5009602;28;20018;-68
2022/07/03 06:02:00;;;;;;;4.07;2.00;;;21.30;81.00;;;;;;5015041;28;20033;-68
2022/07/03 06:04:26;;;;;;;5.25;2.17;;;21.40;80.90;;;;;;4996280;28;20390;-68
2022/07/03 06:06:52;;;;;;;5.43;2.38;;;21.50;80.80;;;;;;5013621;28;20036;-68
2022/07/03 06:09:17;;;;;;;3.78;2.30;;;21.50;80.30;;;;;;4997917;28;20050;-68
2022/07/03 06:11:43;;;;;;;6.13;2.63;;;21.60;80.20;;;;;;5004638;28;20033;-68
2022/07/03 06:14:09;;;;;;;6.95;2.50;;;21.60;79.80;;;;;;5000882;28;20479;-69
2022/07/03 06:16:34;;;;;;;4.60;2.78;;;21.70;79.40;;;;;;5013690;28;20050;-68
2022/07/03 06:19:00;;;;;;;4.90;2.50;;;21.70;79.30;;;;;;5013264;28;20034;-68
2022/07/03 06:21:26;;;;;;;4.55;2.30;;;21.80;79.10;;;;;;5012945;28;20053;-68
2022/07/03 06:23:51;;;;;;;5.10;2.60;;;21.70;79.00;;;;;;5010657;28;20032;-69
2022/07/03 06:26:17;;;;;;;4.80;2.20;;;21.80;79.10;;;;;;5000595;28;20065;-68
2022/07/03 06:28:43;;;;;;;3.92;2.35;;;21.80;78.80;;;;;;5013132;28;20475;-68
2022/07/03 06:31:09;;;;;;;5.32;2.85;;;21.90;79.10;;;;;;5006436;28;20034;-68
2022/07/03 06:33:34;;;;;;;4.32;2.60;;;21.90;79.40;;;;;;5009632;28;20184;-69
2022/07/03 06:36:00;;;;;;;4.90;2.40;;;21.90;79.70;;;;;;5010321;28;20531;-68
2022/07/03 06:38:26;;;;;;;5.22;3.17;;;22.00;79.40;;;;;;5013391;28;20045;-68
2022/07/03 06:40:51;;;;;;;4.40;2.33;;;22.00;79.60;;;;;;4996882;28;20146;-68
2022/07/03 06:43:17;;;;;;;4.60;2.45;;;22.00;79.10;;;;;;4984448;28;20427;-68
2022/07/03 06:45:43;;;;;;;4.95;2.60;;;22.10;79.60;;;;;;5013128;28;20391;-68
2022/07/03 06:48:08;;;;;;;4.90;2.28;;;22.10;79.10;;;;;;5006826;28;20031;-69
2022/07/03 06:50:34;;;;;;;5.00;2.53;;;22.10;79.60;;;;;;5007546;28;20026;-68
2022/07/03 06:53:00;;;;;;;5.82;2.83;;;22.20;79.40;;;;;;5012888;28;20033;-68
2022/07/03 06:55:26;;;;;;;4.88;2.38;;;22.20;79.70;;;;;;5013917;28;20041;-68
2022/07/03 06:57:52;;;;;;;3.70;2.40;;;22.20;79.50;;;;;;5011845;28;20026;-68
2022/07/03 07:00:17;;;;;;;5.18;2.17;;;22.30;79.30;;;;;;5012153;28;20025;-69
2022/07/03 07:02:43;;;;;;;6.18;2.33;;;22.30;79.30;;;;;;5012278;28;20471;-69
2022/07/03 07:05:09;;;;;;;5.68;2.25;;;22.30;78.80;;;;;;5012673;28;20025;-68
2022/07/03 07:07:34;;;;;;;4.60;1.55;;;22.40;78.50;;;;;;5011953;28;20030;-68
2022/07/03 07:10:00;;;;;;;3.92;1.80;;;22.40;78.50;;;;;;5012081;28;20064;-68
2022/07/03 07:12:25;;;;;;;2.97;1.00;;;22.40;78.80;;;;;;5011470;28;20030;-68
2022/07/03 07:14:51;;;;;;;3.53;1.33;;;22.40;78.70;;;;;;5012529;28;20535;-68
2022/07/03 07:17:17;;;;;;;3.00;1.13;;;22.50;78.40;;;;;;5011705;28;20037;-68
2022/07/03 07:19:42;;;;;;;3.00;1.02;;;22.50;78.50;;;;;;5011583;28;20025;-68
2022/07/03 07:22:08;;;;;;;4.78;1.40;;;22.50;78.30;;;;;;5004190;28;20022;-68
2022/07/03 07:24:34;;;;;;;2.33;0.90;;;22.60;78.50;;;;;;5011968;28;20076;-69
2022/07/03 07:26:59;;;;;;;3.55;1.20;;;22.60;78.00;;;;;;5012927;28;20071;-68
2022/07/03 07:29:25;;;;;;;4.80;1.35;;;22.70;77.60;;;;;;5012165;28;20030;-68
2022/07/03 07:31:50;;;;;;;3.78;1.67;;;22.70;77.30;;;;;;5012205;28;20025;-68
2022/07/03 07:34:16;;;;;;;4.53;1.30;;;22.70;77.50;;;;;;5012371;28;20468;-68
2022/07/03 07:36:42;;;;;;;2.63;1.27;;;22.70;77.10;;;;;;5013202;28;20033;-68
2022/07/03 07:39:09;;;;;;;4.13;1.33;;;22.70;77.10;;;;;;5011417;28;20375;-68
2022/07/03 07:41:35;;;;;;;4.85;1.40;;;22.80;77.10;;;;;;5002827;28;20061;-69
2022/07/03 07:44:01;;;;;;;4.63;1.50;;;22.80;77.10;;;;;;5008123;28;20037;-68
2022/07/03 07:46:26;;;;;;;3.10;0.90;;;22.80;77.20;;;;;;5011921;28;20022;-68
2022/07/03 07:48:52;;;;;;;4.60;1.30;;;22.80;77.00;;;;;;4996086;28;20042;-68
2022/07/03 07:51:17;;;;;;;4.30;1.13;;;22.80;77.30;;;;;;5006963;28;20026;-68
2022/07/03 07:53:44;;;;;;;4.32;0.90;;;22.90;77.60;;;;;;5005935;28;20045;-68
2022/07/03 07:56:09;;;;;;;4.70;0.80;;;22.90;76.80;;;;;;5016298;28;20057;-68
2022/07/03 07:58:35;;;;;;;3.35;1.00;;;23.00;76.70;;;;;;5016542;28;20030;-68
2022/07/03 08:06:29;;;;;;;2.55;0.85;;;23.10;76.10;;;;;;5016078;28;20509;-67
2022/07/03 08:08:55;;;;;;;5.03;1.30;;;23.10;76.00;;;;;;5014551;28;20120;-67
2022/07/03 08:11:21;;;;;;;3.28;0.98;;;23.20;75.90;;;;;;5016116;28;20028;-68
2022/07/03 08:13:46;;;;;;;2.20;0.77;;;23.20;76.10;;;;;;5015349;28;20057;-68
2022/07/03 08:16:13;;;;;;;2.47;0.40;;;23.20;76.10;;;;;;5014670;28;20040;-67
2022/07/03 08:18:39;;;;;;;1.65;0.45;;;23.20;75.70;;;;;;4994432;28;20018;-68
2022/07/03 08:21:04;;;;;;;4.88;1.00;;;23.20;75.40;;;;;;5014055;28;20037;-68
2022/07/03 08:23:30;;;;;;;3.33;1.10;;;23.20;75.40;;;;;;5014003;28;20022;-67
2022/07/03 08:25:55;;;;;;;3.70;1.10;;;23.20;75.20;;;;;;5015982;28;20029;-68
2022/07/03 08:28:21;;;;;;;2.50;0.93;;;23.20;75.10;;;;;;5015573;28;20475;-68
2022/07/03 08:30:47;;;;;;;6.60;1.08;;;23.30;75.50;;;;;;5015810;28;20045;-69
2022/07/03 08:33:12;;;;;;;4.97;0.95;;;23.30;75.50;;;;;;5015520;28;20034;-68
2022/07/03 08:35:38;;;;;;;1.75;0.80;;;23.40;74.90;;;;;;5015790;28;20109;-68
2022/07/03 08:38:04;;;;;;;6.32;0.90;;;23.40;74.20;;;;;;5010909;28;20058;-68
2022/07/03 08:40:31;;;;;;;6.00;0.73;;;23.40;74.30;;;;;;5010307;28;20022;-68
2022/07/03 08:42:58;;;;;;;4.70;0.52;;;23.40;74.40;;;;;;5001268;28;20038;-68
2022/07/03 08:45:24;;;;;;;5.70;0.85;;;23.40;74.50;;;;;;5006955;28;20030;-68
2022/07/03 08:47:54;;;;;;;3.15;1.00;;;23.40;74.50;;;;;;5014321;28;20022;-69
2022/07/03 08:50:20;;;;;;;2.53;0.88;;;23.50;74.60;;;;;;5014953;28;20042;-68
2022/07/03 08:52:47;;;;;;;2.65;0.95;;;23.40;74.20;;;;;;5008067;28;20026;-68
2022/07/03 08:55:14;;;;;;;2.78;0.68;;;23.40;74.20;;;;;;5011769;28;20040;-68
2022/07/03 08:57:41;;;;;;;2.42;0.88;;;23.50;73.80;;;;;;5014011;28;20022;-68
2022/07/03 09:00:10;;;;;;;3.50;0.60;;;23.50;73.80;;;;;;5011980;28;20044;-68
2022/07/03 09:02:35;;;;;;;3.53;0.65;;;23.50;73.40;;;;;;5010938;28;20028;-67
2022/07/03 09:05:02;;;;;;;3.90;0.85;;;23.50;73.60;;;;;;5012559;28;20026;-73
2022/07/03 09:07:35;;;;;;;7.90;0.70;;;23.60;73.80;;;;;;5010485;28;20050;-73
2022/07/03 09:10:06;;;;;;;3.35;0.57;;;23.60;73.80;;;;;;5013321;28;20037;-74
2022/07/03 09:12:32;;;;;;;3.58;0.80;;;23.60;73.90;;;;;;4996568;28;20022;-73
2022/07/03 09:15:02;;;;;;;7.95;0.70;;;23.60;73.90;;;;;;5008365;28;21287;-73
2022/07/03 09:17:28;;;;;;;3.88;0.80;;;23.60;73.90;;;;;;5005410;28;20058;-73
2022/07/03 09:19:57;;;;;;;4.82;0.70;;;23.60;73.90;;;;;;5005152;28;20046;-68
2022/07/03 09:22:28;;;;;;;4.35;0.60;;;23.60;73.90;;;;;;5006194;28;20488;-69
2022/07/03 09:25:03;;;;;;;2.30;0.50;;;23.70;73.80;;;;;;5009225;28;20483;-70
2022/07/03 09:27:29;;;;;;;8.13;0.75;;;23.70;72.30;;;;;;5006643;28;20037;-66
2022/07/03 09:30:02;;;;;;;4.07;0.57;;;23.70;73.30;;;;;;5009024;28;20038;-66
2022/07/03 09:32:42;;;;;;;5.60;0.70;;;23.70;73.50;;;;;;5008065;28;20085;-67
2022/07/03 09:35:25;;;;;;;3.47;0.70;;;23.80;73.60;;;;;;5008673;28;20057;-68
2022/07/03 09:37:59;;;;;;;6.13;0.70;;;23.70;73.20;;;;;;5005104;28;20117;-67
2022/07/03 09:40:26;;;;;;;6.78;0.60;;;23.80;73.30;;;;;;5007137;28;20026;-66
2022/07/03 09:43:06;;;;;;;3.17;0.60;;;23.80;72.80;;;;;;5006473;28;20042;-67
2022/07/03 09:46:00;;;;;;;4.70;0.40;;;23.80;72.80;;;;;;5006682;28;20034;-66
2022/07/03 09:48:31;;;;;;;4.25;0.80;;;23.80;72.90;;;;;;4994663;28;20022;-67
2022/07/03 09:51:16;;;;;;;3.45;0.60;;;23.80;72.90;;;;;;5006727;28;20018;-68
2022/07/03 09:53:54;;;;;;;8.32;0.90;;;23.80;73.00;;;;;;5011352;28;20022;-67
2022/07/03 09:56:23;;;;;;;3.80;0.63;;;23.80;72.60;;;;;;5005604;28;20395;-67
2022/07/03 09:59:08;;;;;;;4.45;0.43;;;23.80;72.60;;;;;;5009146;28;20097;-67
2022/07/03 10:01:42;;;;;;;3.33;0.50;;;23.80;72.50;;;;;;4994491;28;20518;-66
2022/07/03 10:04:13;;;;;;;11.73;1.20;;;23.80;72.30;;;;;;5006984;28;20026;-66
2022/07/03 10:06:50;;;;;;;10.10;0.73;;;23.80;71.80;;;;;;5000504;28;20101;-68
2022/07/03 10:09:19;;;;;;;5.32;0.70;;;23.90;71.50;;;;;;5009869;28;20045;-66
2022/07/03 10:11:45;;;;;;;5.90;0.70;;;23.90;71.30;;;;;;5002275;28;20017;-66
2022/07/03 10:14:23;;;;;;;3.97;0.70;;;23.90;71.50;;;;;;4985446;28;20030;-67
2022/07/03 10:16:49;;;;;;;7.95;0.60;;;23.90;71.50;;;;;;5008896;28;20022;-66
2022/07/03 10:19:23;;;;;;;3.22;0.55;;;23.90;71.30;;;;;;5008907;28;20026;-67
2022/07/03 10:22:00;;;;;;;9.25;1.00;;;23.90;71.40;;;;;;5006867;28;20534;-63
2022/07/03 10:24:27;;;;;;;2.50;0.60;;;23.80;71.50;;;;;;4997557;28;20034;-65
2022/07/03 10:26:54;;;;;;;4.07;0.57;;;23.80;71.60;;;;;;5022154;28;20034;-66
2022/07/03 10:29:25;;;;;;;5.15;0.60;;;23.90;71.40;;;;;;5008238;28;20033;-66
2022/07/03 10:31:51;;;;;;;3.53;0.30;;;23.80;71.50;;;;;;5009534;28;20033;-65
2022/07/03 10:34:22;;;;;;;1.83;0.50;;;23.90;71.30;;;;;;5010276;28;20034;-64
2022/07/03 10:37:10;;;;;;;3.13;0.70;;;23.80;71.70;;;;;;5009706;28;20018;-65
2022/07/03 10:39:49;;;;;;;3.45;0.98;;;23.90;72.50;;;;;;5007903;28;20076;-65
2022/07/03 10:45:12;;;;;;;3.35;1.33;;;24.00;73.90;;;;;;5008896;28;20041;-65
2022/07/03 10:47:45;;;;;;;5.95;1.23;;;24.00;76.80;;;;;;5010631;28;20421;-67
2022/07/03 10:50:15;;;;;;;5.22;0.90;;;24.00;78.80;;;;;;5015457;28;20028;-67
2022/07/03 10:52:42;;;;;;;3.35;0.73;;;24.00;78.00;;;;;;5011916;28;20014;-67
2022/07/03 10:55:09;;;;;;;4.22;1.38;;;23.90;78.00;;;;;;5007955;28;20033;-67
2022/07/03 10:57:36;;;;;;;4.82;1.17;;;24.00;79.20;;;;;;5011862;28;20100;-65
2022/07/03 11:00:05;;;;;;;3.35;1.20;;;23.90;79.00;;;;;;5011000;28;20105;-67
2022/07/03 11:02:45;;;;;;;4.70;0.93;;;23.90;77.80;;;;;;5008770;28;20121;-67
2022/07/03 11:05:18;;;;;;;3.40;0.73;;;24.00;76.60;;;;;;5014682;28;20337;-66
2022/07/03 11:07:49;;;;;;;;;;;24.00;75.80;;;;;;5011883;28;20145;-66
2022/07/03 11:10:15;;;;;;;3.58;0.45;;;24.00;74.30;;;;;;5004318;28;19925;-67
2022/07/03 11:12:56;;;;;;;3.95;0.50;;;24.10;72.80;;;;;;5012036;28;20033;-67
2022/07/03 11:15:50;;;;;;;3.55;0.77;;;24.10;72.80;;;;;;5008607;28;20371;-65
2022/07/03 11:18:30;;;;;;;1.50;0.50;;;24.10;72.00;;;;;;4998652;28;20505;-66
2022/07/03 11:21:14;;;;;;;3.10;0.50;;;24.10;71.80;;;;;;4983222;28;20034;-67
2022/07/03 11:24:24;;;;;;;3.15;0.60;;;24.00;72.30;;;;;;4981603;28;20025;-67
2022/07/03 11:27:12;;;;;;;4.15;0.50;;;24.10;69.70;;;;;;4988067;28;20129;-66
2022/07/03 11:29:38;;;;;;;4.10;0.75;;;24.20;70.80;;;;;;5011235;28;20512;-68
2022/07/03 11:32:41;;;;;;;3.00;0.75;;;24.10;71.40;;;;;;5003258;28;20509;-67
2022/07/03 11:35:07;;;;;;;2.83;1.10;;;24.10;70.70;;;;;;5003662;28;20480;-66
2022/07/03 11:37:32;;;;;;;7.18;1.15;;;24.10;70.20;;;;;;5003158;28;20077;-65
2022/07/03 11:40:03;;;;;;;4.00;0.85;;;24.10;69.80;;;;;;4993059;28;20037;-66
2022/07/03 11:42:34;;;;;;;5.90;0.82;;;24.10;69.30;;;;;;5006240;28;20061;-66
2022/07/03 11:45:00;;;;;;;3.22;0.82;;;24.10;69.30;;;;;;5005882;28;20523;-69
2022/07/03 11:47:26;;;;;;;4.22;1.20;;;24.10;68.70;;;;;;5006267;28;20188;-67
2022/07/03 11:49:52;;;;;;;3.97;1.02;;;24.20;68.10;;;;;;5006205;28;20490;-67
2022/07/03 11:52:33;;;;;;;7.70;1.40;;;24.20;68.90;;;;;;5004831;28;20018;-68
2022/07/03 11:54:59;;;;;;;5.30;1.10;;;24.10;69.30;;;;;;4989583;28;20077;-68
2022/07/03 11:57:24;;;;;;;4.38;0.93;;;24.10;67.90;;;;;;5010629;28;20026;-68
2022/07/03 11:59:54;;;;;;;5.68;0.70;;;24.10;67.50;;;;;;5005799;28;20022;-65
2022/07/03 12:02:19;;;;;;;3.13;0.90;;;24.00;67.30;;;;;;4981809;28;20029;-65
2022/07/03 12:04:45;;;;;;;2.35;0.60;;;24.10;67.20;;;;;;5004258;28;20025;-67
2022/07/03 12:07:10;;;;;;;6.20;0.80;;;24.10;66.40;;;;;;5004002;28;20026;-66
2022/07/03 12:09:36;;;;;;;4.78;0.80;;;24.10;65.70;;;;;;5003460;28;20041;-68
2022/07/03 12:12:06;;;;;;;2.72;0.63;;;24.00;65.80;;;;;;5004217;28;20018;-66
2022/07/03 12:14:55;;;;;;;6.07;0.90;;;24.10;65.40;;;;;;4996844;28;20346;-65
2022/07/03 12:17:23;;;;;;;6.20;0.73;;;24.10;65.60;;;;;;4998199;28;20113;-68
2022/07/03 12:19:49;;;;;;;2.67;0.50;;;24.10;65.90;;;;;;5003693;28;20018;-66
2022/07/03 12:22:29;;;;;;;4.55;0.95;;;24.10;65.60;;;;;;5005783;28;20037;-67
2022/07/03 12:25:01;;;;;;;4.28;0.70;;;24.10;66.30;;;;;;5005283;28;20010;-64
2022/07/03 12:27:27;;;;;;;5.07;0.63;;;24.10;66.40;;;;;;5005749;28;20026;-65
2022/07/03 12:29:53;;;;;;;4.20;0.60;;;24.10;66.40;;;;;;5002315;28;20048;-66
2022/07/03 12:32:19;;;;;;;3.50;0.52;;;24.10;65.90;;;;;;5001631;28;20466;-66
2022/07/03 12:34:48;;;;;;;3.17;0.63;;;24.10;66.70;;;;;;5003788;28;20570;-67
2022/07/03 12:37:13;;;;;;;1.58;0.25;;;24.10;66.90;;;;;;5010623;28;20025;-64
2022/07/03 12:39:47;;;;;;;2.53;0.50;;;24.10;66.90;;;;;;4996389;28;20038;-65
2022/07/03 12:42:18;;;;;;;3.05;0.40;;;24.20;66.60;;;;;;5004517;28;20034;-65
2022/07/03 12:45:04;;;;;;;3.58;0.30;;;24.10;66.40;;;;;;5003786;28;20029;-64
2022/07/03 12:47:31;;;;;;;3.88;0.60;;;24.20;66.50;;;;;;4988385;28;20123;-66
2022/07/03 12:50:00;;;;;;;3.70;0.50;;;24.10;66.50;;;;;;5006765;28;20092;-67
2022/07/03 12:52:27;;;;;;;3.08;0.57;;;24.10;66.40;;;;;;5010687;28;20042;-66
2022/07/03 12:54:54;;;;;;;3.33;0.63;;;24.10;66.40;;;;;;5008015;28;20392;-67
2022/07/03 13:00:07;;;;;;;2.10;0.57;;;24.10;66.10;;;;;;5007844;28;20103;-66
2022/07/03 13:02:34;;;;;;;2.78;0.40;;;24.20;65.70;;;;;;5005799;28;20109;-65
2022/07/03 13:05:01;;;;;;;4.90;0.40;;;24.20;65.80;;;;;;5006474;28;20054;-66
2022/07/03 13:07:30;;;;;;;2.58;0.40;;;24.20;65.80;;;;;;5009389;28;20037;-67
2022/07/03 13:10:00;;;;;;;0.98;0.20;;;24.20;65.60;;;;;;4980545;28;20478;-67
2022/07/03 13:12:25;;;;;;;2.10;0.30;;;24.20;65.70;;;;;;5005182;28;20041;-65